Latest Weather Observations for Narrabri

IDN60801

Issued at 2:35 pm EST Sunday 20 April 2014 (issued every 30 minutes, with the page automatically refreshed every 10 minutes)

About weather observations | Map of weather stations | Latest weather observations for NSW | Other Formats
Station Details ID: 054038 Name: NARRABRI AIRPORT AWS Lat: -30.32 Lon: 149.83 Height: 229.02 m
Data from the previous 72 hours. | See also: Recent months at Narrabri
Date/Time
EST
Temp
°C
App
Temp
°C
Dew
Point
Rel
Hum
%
Delta-T
°C
Wind Press
QNH
hPa
Press
MSL
hPa
Rain
since 9 am
mm
Dir
 
Spd
km/h
Gust
km/h
Spd
kts
Gust
kts
20/02:30pm 24.1 20.8 6.4 32 9.2 W 13 22 7 12 1017.0 - 0.0
20/02:00pm 24.1 19.5 6.4 32 9.2 W 20 33 11 18 1017.0 1016.3 0.0
20/01:30pm 24.3 19.6 7.9 35 8.8 W 22 33 12 18 1017.3 - 0.0
20/01:00pm 24.4 20.1 8.0 35 8.8 WNW 20 24 11 13 1017.5 1016.8 0.0
20/12:30pm 23.7 19.8 6.9 34 8.8 W 17 28 9 15 1017.8 - 0.0
20/12:00pm 23.3 18.3 6.6 34 8.7 W 22 28 12 15 1018.4 1017.7 0.0
20/11:30am 22.5 18.0 5.9 34 8.5 W 19 28 10 15 1018.8 - 0.0
20/11:00am 22.4 18.4 6.6 36 8.1 WSW 17 24 9 13 1019.2 1018.5 0.0
20/10:30am 21.6 17.4 5.9 36 8.0 WSW 17 24 9 13 1019.4 - 0.0
20/10:00am 20.5 17.4 7.2 42 6.9 SW 13 17 7 9 1019.5 1018.8 0.0
20/09:30am 19.1 17.6 9.3 53 5.2 WSW 7 9 4 5 1019.4 - 0.0
20/09:00am 17.4 16.1 10.1 62 3.9 SW 7 9 4 5 1019.3 1018.6 0.0
20/08:30am 15.9 14.6 9.8 67 3.2 SW 7 11 4 6 1019.0 - 0.0
20/08:00am 13.3 11.9 9.7 79 1.9 S 7 7 4 4 1018.7 1018.0 0.0
20/07:30am 10.7 10.5 9.1 90 0.8 CALM 0 0 0 0 1018.4 - 0.0
20/07:00am 8.6 8.1 8.0 96 0.3 CALM 0 0 0 0 1018.0 1017.3 0.0
20/06:30am 8.0 7.3 6.9 93 0.5 CALM 0 0 0 0 1017.8 - 0.0
20/06:00am 8.2 7.5 7.0 92 0.6 SSE 0 6 0 3 1017.6 1016.9 0.0
20/05:30am 7.7 5.7 6.2 90 0.7 S 6 7 3 4 1017.2 - 0.0
20/05:00am 8.6 8.0 7.4 92 0.6 CALM 0 0 0 0 1017.0 1016.3 0.0
20/04:30am 8.3 6.4 6.8 90 0.7 ENE 6 7 3 4 1016.8 - 0.0
20/04:00am 8.9 8.2 6.9 87 0.9 CALM 0 0 0 0 1016.7 1016.0 0.0
20/03:30am 8.8 7.2 6.4 85 1.1 SSE 4 7 2 4 1016.7 - 0.0
20/03:00am 9.2 7.2 6.1 81 1.4 NE 6 7 3 4 1016.7 1016.0 0.0
20/02:30am 11.1 10.2 6.0 71 2.4 CALM 0 0 0 0 1016.9 - 0.0
20/02:00am 12.3 10.3 6.1 66 3.0 SSE 6 9 3 5 1016.9 1016.2 0.0
20/01:30am 12.6 11.3 6.0 64 3.1 SSE 2 7 1 4 1017.1 - 0.0
20/01:00am 13.9 11.0 6.3 60 3.7 SSE 11 15 6 8 1017.1 1016.4 0.0
20/12:30am 14.3 11.3 6.2 58 3.9 SSE 11 15 6 8 1017.3 - 0.0
20/12:00am 14.8 11.2 6.6 58 4.0 SSE 15 19 8 10 1017.3 1016.6 0.0
 
Date/Time
EST
Temp
°C
App
Temp
°C
Dew
Point
Rel
Hum
%
Delta-T
°C
Wind Press
QNH
hPa
Press
MSL
hPa
Rain
since 9 am
mm
Dir
 
Spd
km/h
Gust
km/h
Spd
kts
Gust
kts
19/11:30pm 14.8 11.2 6.9 59 3.9 SSE 15 19 8 10 1017.5 - 0.0
19/11:00pm 15.6 12.4 6.9 56 4.3 SSE 13 19 7 10 1017.7 1017.0 0.0
19/10:30pm 16.3 12.4 7.0 54 4.7 SSE 17 24 9 13 1017.7 - 0.0
19/10:00pm 17.0 14.4 7.6 54 4.8 SE 11 20 6 11 1017.7 1017.0 0.0
19/09:30pm 16.9 14.2 7.5 54 4.8 SE 11 19 6 10 1017.6 - 0.0
19/09:00pm 16.5 14.0 8.0 57 4.3 ESE 11 15 6 8 1017.6 1016.9 0.0
19/08:30pm 16.3 13.8 8.3 59 4.1 S 11 13 6 7 1017.4 - 0.0
19/08:00pm 16.1 13.7 8.6 61 3.9 S 11 13 6 7 1017.1 1016.4 0.0
19/07:30pm 17.0 15.0 8.7 58 4.3 SSW 9 13 5 7 1016.7 - 0.0
19/07:00pm 17.7 15.3 8.6 55 4.7 SW 11 13 6 7 1016.1 1015.5 0.0
19/06:30pm 18.4 15.7 7.5 49 5.6 W 11 17 6 9 1015.6 - 0.0
19/06:00pm 20.5 17.1 7.5 43 6.7 WNW 15 19 8 10 1015.0 1014.3 0.0
19/05:30pm 21.9 18.8 7.3 39 7.6 WNW 13 15 7 8 1014.7 - 0.0
19/05:00pm 24.2 21.4 6.9 33 9.1 W 11 15 6 8 1014.5 1013.8 0.0
19/04:30pm 24.9 22.5 7.1 32 9.4 W 9 13 5 7 1014.4 - 0.0
19/04:00pm 24.4 20.7 6.2 31 9.4 WSW 15 24 8 13 1014.4 1013.7 0.0
19/03:30pm 25.5 22.0 7.1 31 9.8 WSW 15 20 8 11 1014.5 - 0.0
19/03:00pm 25.8 20.8 6.4 29 10.2 W 22 30 12 16 1014.7 1014.0 0.0
19/02:30pm 25.1 21.2 7.3 32 9.5 WSW 17 22 9 12 1014.8 - 0.0
19/02:00pm 25.5 21.4 6.2 29 10.1 W 17 26 9 14 1015.0 1014.3 0.0
19/01:30pm 24.7 18.2 6.4 31 9.6 W 30 43 16 23 1015.4 - 0.0
19/01:00pm 23.8 19.2 6.6 33 9.0 WNW 20 30 11 16 1015.9 1015.2 0.0
19/12:30pm 24.9 22.1 8.4 35 8.9 WNW 13 20 7 11 1016.5 - 0.0
19/12:00pm 24.2 21.3 8.2 36 8.6 NW 13 20 7 11 1017.1 1016.4 0.0
19/11:30am 23.3 20.5 8.6 39 7.9 W 13 20 7 11 1017.8 - 0.0
19/11:00am 22.5 20.0 8.2 40 7.6 NW 11 17 6 9 1018.2 1017.5 0.0
19/10:30am 21.4 19.0 8.7 44 6.8 NNW 11 17 6 9 1018.5 - 0.0
19/10:00am 20.3 18.7 8.9 48 6.1 WNW 7 13 4 7 1018.8 1018.1 0.0
19/09:30am 18.2 17.1 9.8 58 4.5 W 6 9 3 5 1018.9 - 0.0
19/09:00am 16.8 15.2 10.2 65 3.5 WSW 9 13 5 7 1019.0 1018.3 0.0
19/08:30am 14.6 12.2 10.0 74 2.4 S 13 15 7 8 1019.0 - 0.0
19/08:00am 12.8 12.2 10.3 85 1.3 SSW 4 20 2 11 1018.7 1018.0 0.0
19/07:30am 11.3 11.2 9.4 88 1.0 CALM 0 0 0 0 1018.1 - 0.0
19/07:00am 8.6 6.9 7.5 93 0.5 S 6 7 3 4 1018.0 1017.3 0.0
19/06:30am 8.0 7.2 6.3 89 0.8 CALM 0 9 0 5 1017.6 - 0.0
19/06:00am 10.5 8.5 8.8 89 0.8 E 9 15 5 8 1017.2 1016.5 0.0
19/05:30am 8.4 7.3 6.7 89 0.8 S 2 6 1 3 1017.2 - 0.0
19/05:00am 8.6 6.4 6.2 85 1.1 SSW 7 13 4 7 1017.0 1016.3 0.0
19/04:30am 12.0 9.6 8.7 80 1.7 E 11 19 6 10 1016.6 - 0.0
19/04:00am 11.2 9.3 7.7 79 1.7 E 7 11 4 6 1016.5 1015.8 0.0
19/03:30am 10.9 8.8 8.1 83 1.4 E 9 13 5 7 1016.6 - 0.0
19/03:00am 9.6 7.9 7.5 87 1.0 ESE 6 7 3 4 1016.6 1015.9 0.0
19/02:30am 9.0 7.9 7.1 88 0.9 E 2 9 1 5 1016.9 - 0.0
19/02:00am 9.6 8.6 7.2 85 1.1 N 2 6 1 3 1017.1 1016.4 0.0
19/01:30am 9.9 9.3 7.2 83 1.3 CALM 0 0 0 0 1017.3 - 0.0
19/01:00am 10.8 9.8 7.3 79 1.7 S 2 7 1 4 1017.3 1016.6 0.0
19/12:30am 10.7 10.0 6.8 77 1.9 CALM 0 0 0 0 1017.5 - 0.0
19/12:00am 12.4 11.4 7.3 71 2.5 SSE 2 6 1 3 1017.6 1016.9 0.0
 
Date/Time
EST
Temp
°C
App
Temp
°C
Dew
Point
Rel
Hum
%
Delta-T
°C
Wind Press
QNH
hPa
Press
MSL
hPa
Rain
since 9 am
mm
Dir
 
Spd
km/h
Gust
km/h
Spd
kts
Gust
kts
18/11:30pm 13.5 10.4 7.3 66 3.1 E 13 15 7 8 1017.6 - 0.0
18/11:00pm 12.7 10.6 6.7 67 2.9 E 7 9 4 5 1017.9 1017.2 0.0
18/10:30pm 14.0 11.9 5.9 58 3.9 SE 6 11 3 6 1017.9 - 0.0
18/10:00pm 17.0 14.1 6.5 50 5.2 SE 11 15 6 8 1017.9 1017.2 0.0
18/09:30pm 17.1 13.9 6.9 51 5.1 SSE 13 17 7 9 1017.8 - 0.0
18/09:00pm 15.9 13.1 6.9 55 4.5 SSE 11 13 6 7 1017.7 1017.0 0.0
18/08:30pm 14.4 12.2 6.3 58 3.9 S 7 9 4 5 1017.4 - 0.0
18/08:00pm 16.8 14.3 6.6 51 5.1 SSW 9 11 5 6 1016.9 1016.2 0.0
18/07:30pm 17.2 15.1 6.7 50 5.3 SW 7 9 4 5 1016.6 - 0.0
18/07:00pm 18.1 15.3 6.9 48 5.7 WSW 11 15 6 8 1016.4 1015.7 0.0
18/06:30pm 18.1 14.8 6.6 47 5.8 WSW 13 15 7 8 1016.0 - 0.0
18/06:00pm 19.0 15.2 5.8 42 6.6 WSW 15 17 8 9 1015.8 1015.1 0.0
18/05:30pm 21.7 17.4 5.2 34 8.3 WSW 17 22 9 12 1015.6 - 0.0
18/05:00pm 24.1 19.2 5.0 29 9.7 WSW 20 26 11 14 1015.3 1014.6 0.0
18/04:30pm 24.9 20.0 5.2 28 10.1 WSW 20 28 11 15 1015.1 - 0.0
18/04:00pm 25.5 20.3 5.7 28 10.3 WSW 22 33 12 18 1014.9 1014.2 0.0
18/03:30pm 25.9 21.5 6.5 29 10.2 WSW 19 26 10 14 1014.8 - 0.0
18/03:00pm 25.8 20.9 6.9 30 10.0 WSW 22 32 12 17 1014.9 1014.2 0.0
18/02:30pm 25.3 21.0 7.0 31 9.7 SSW 19 24 10 13 1015.2 - 0.0
18/02:00pm 25.3 23.0 7.4 32 9.5 W 9 20 5 11 1015.4 1014.7 0.0
18/01:30pm 24.9 23.5 8.8 36 8.8 SW 6 11 3 6 1015.7 - 0.0
18/01:00pm 24.3 22.3 8.7 37 8.5 W 9 17 5 9 1016.3 1015.6 0.0
18/12:30pm 23.5 21.0 8.0 37 8.3 WSW 11 19 6 10 1016.8 - 0.0
18/12:00pm 23.6 19.9 8.1 37 8.3 S 17 24 9 13 1017.3 1016.6 0.0
18/11:30am 22.8 18.5 7.0 36 8.2 SSW 19 24 10 13 1017.9 - 0.0
18/11:00am 21.9 20.1 9.4 45 6.8 WSW 9 17 5 9 1018.4 1017.7 0.0
18/10:30am 21.1 19.3 9.4 47 6.3 SW 9 13 5 7 1018.8 - 0.0
18/10:00am 20.3 18.6 9.8 51 5.7 SSW 9 15 5 8 1018.9 1018.2 0.0
18/09:30am 18.5 16.9 10.1 58 4.5 S 9 13 5 7 1019.1 - 0.0
18/09:00am 17.3 15.8 10.4 64 3.7 SSW 9 11 5 6 1019.1 1018.4 0.0
18/08:30am 15.1 14.2 11.5 79 2.0 SSW 7 9 4 5 1019.1 - 0.0
18/08:00am 11.7 11.1 10.3 91 0.7 SSW 4 7 2 4 1019.1 1018.4 0.0
18/07:30am 9.6 8.9 8.5 93 0.5 SSW 2 6 1 3 1019.0 - 0.0
18/07:00am 8.3 7.8 7.9 97 0.2 CALM 0 0 0 0 1018.7 1018.0 0.0
18/06:30am 7.5 6.9 7.2 98 0.1 CALM 0 0 0 0 1018.6 - 0.0
18/06:00am 7.6 7.0 7.2 97 0.2 CALM 0 0 0 0 1018.5 1017.8 0.0
18/05:30am 7.6 6.9 7.0 96 0.3 CALM 0 0 0 0 1018.4 - 0.0
18/05:00am 7.7 6.9 6.6 93 0.5 CALM 0 0 0 0 1018.3 1017.6 0.0
18/04:30am 7.9 7.2 7.0 94 0.4 CALM 0 0 0 0 1018.1 - 0.0
18/04:00am 8.1 7.3 6.6 90 0.7 CALM 0 0 0 0 1018.0 1017.3 0.0
18/03:30am 8.7 8.1 7.5 92 0.6 CALM 0 0 0 0 1017.9 - 0.0
18/03:00am 8.5 7.7 6.6 88 0.9 CALM 0 0 0 0 1018.0 1017.3 0.0
18/02:30am 8.8 8.1 6.8 87 0.9 CALM 0 0 0 0 1018.1 - 0.0
18/02:00am 9.4 8.7 6.8 84 1.2 CALM 0 0 0 0 1018.3 1017.6 0.0
18/01:30am 10.2 9.6 7.3 82 1.4 CALM 0 0 0 0 1018.5 - 0.0
18/01:00am 10.9 9.2 7.6 80 1.6 E 6 7 3 4 1018.6 1017.9 0.0
18/12:30am 11.3 9.5 8.0 80 1.6 E 7 9 4 5 1018.9 - 0.0
18/12:00am 10.5 7.9 7.9 84 1.3 ENE 11 15 6 8 1019.2 1018.5 0.0
 
Date/Time
EST
Temp
°C
App
Temp
°C
Dew
Point
Rel
Hum
%
Delta-T
°C
Wind Press
QNH
hPa
Press
MSL
hPa
Rain
since 9 am
mm
Dir
 
Spd
km/h
Gust
km/h
Spd
kts
Gust
kts
17/11:30pm 10.3 8.6 7.4 82 1.4 ESE 6 11 3 6 1019.4 - 0.0
17/11:00pm 12.1 10.2 6.8 70 2.6 S 6 7 3 4 1019.4 1018.7 0.0
17/10:30pm 13.3 11.3 7.3 67 3.0 S 7 11 4 6 1019.6 - 0.0
17/10:00pm 11.5 10.3 8.0 79 1.7 SE 4 7 2 4 1019.5 1018.8 0.0
17/09:30pm 11.4 10.1 7.7 78 1.8 ENE 4 7 2 4 1019.4 - 0.0
17/09:00pm 13.4 12.0 5.6 59 3.7 SSE 2 7 1 4 1019.1 1018.4 0.0
17/08:30pm 16.5 14.0 6.6 52 4.9 SSE 9 11 5 6 1019.0 - 0.0
17/08:00pm 16.8 14.0 6.9 52 4.9 SSE 11 15 6 8 1018.8 1018.1 0.0
17/07:30pm 17.5 14.5 7.5 52 5.1 SSE 13 15 7 8 1018.6 - 0.0
17/07:00pm 16.9 14.3 9.3 61 4.0 SSE 13 17 7 9 1018.2 1017.5 0.0
17/06:30pm 19.2 17.2 8.5 50 5.6 SE 9 11 5 6 1017.6 - 0.0
17/06:00pm 19.3 17.4 8.9 51 5.5 SE 9 11 5 6 1017.4 1016.7 0.0
17/05:30pm 21.2 19.7 9.1 46 6.5 SE 7 9 4 5 1017.3 - 0.0
17/05:00pm 22.3 20.7 8.8 42 7.2 SE 7 9 4 5 1017.0 1016.3 0.0
17/04:30pm 23.0 20.5 8.3 39 7.9 SE 11 15 6 8 1017.0 - 0.0
17/04:00pm 22.4 20.3 8.1 40 7.6 SSE 9 11 5 6 1017.1 1016.4 0.0
17/03:30pm 23.5 21.0 8.0 37 8.3 SE 11 15 6 8 1016.8 - 0.0
17/03:00pm 24.3 23.1 9.5 39 8.1 SW 6 9 3 5 1016.9 1016.2 0.0

Other Formats:

Comma delimited format used in spreadsheet applications
http://www.bom.gov.au/fwo/IDN60801/IDN60801.95734.axf

JavaScript Object Notation format (JSON) in row-major order
http://www.bom.gov.au/fwo/IDN60801/IDN60801.95734.json